sensor_id;sensor_type;location;lat;lon;timestamp;P1;durP1;ratioP1;P2;durP2;ratioP2
18316;SDS011;9284;52.298;21.164;2024-01-10T00:02:09;66.53;;;21.83;;
18316;SDS011;9284;52.298;21.164;2024-01-10T00:04:37;56.00;;;20.73;;
18316;SDS011;9284;52.298;21.164;2024-01-10T00:07:08;60.30;;;22.67;;
18316;SDS011;9284;52.298;21.164;2024-01-10T00:09:39;62.80;;;22.67;;
18316;SDS011;9284;52.298;21.164;2024-01-10T00:12:09;68.77;;;22.70;;
18316;SDS011;9284;52.298;21.164;2024-01-10T00:14:38;54.03;;;21.13;;
18316;SDS011;9284;52.298;21.164;2024-01-10T00:17:06;66.97;;;21.97;;
18316;SDS011;9284;52.298;21.164;2024-01-10T00:19:35;69.37;;;22.40;;
18316;SDS011;9284;52.298;21.164;2024-01-10T00:22:05;61.13;;;22.83;;
18316;SDS011;9284;52.298;21.164;2024-01-10T00:24:34;65.53;;;21.60;;
18316;SDS011;9284;52.298;21.164;2024-01-10T00:27:06;63.00;;;22.60;;
18316;SDS011;9284;52.298;21.164;2024-01-10T00:29:37;58.20;;;20.90;;
18316;SDS011;9284;52.298;21.164;2024-01-10T00:32:06;62.33;;;21.83;;
18316;SDS011;9284;52.298;21.164;2024-01-10T00:34:34;52.77;;;19.97;;
18316;SDS011;9284;52.298;21.164;2024-01-10T00:37:03;71.60;;;22.27;;
18316;SDS011;9284;52.298;21.164;2024-01-10T00:39:32;69.43;;;23.20;;
18316;SDS011;9284;52.298;21.164;2024-01-10T00:42:02;60.10;;;21.57;;
18316;SDS011;9284;52.298;21.164;2024-01-10T00:44:33;69.33;;;22.63;;
18316;SDS011;9284;52.298;21.164;2024-01-10T00:47:03;67.33;;;21.87;;
18316;SDS011;9284;52.298;21.164;2024-01-10T00:49:32;64.93;;;23.03;;
18316;SDS011;9284;52.298;21.164;2024-01-10T00:52:00;70.60;;;24.03;;
18316;SDS011;9284;52.298;21.164;2024-01-10T00:54:29;75.90;;;25.13;;
18316;SDS011;9284;52.298;21.164;2024-01-10T00:56:58;68.87;;;23.50;;
18316;SDS011;9284;52.298;21.164;2024-01-10T00:59:26;70.80;;;26.20;;
18316;SDS011;9284;52.298;21.164;2024-01-10T01:01:58;80.17;;;25.70;;
18316;SDS011;9284;52.298;21.164;2024-01-10T01:04:28;70.30;;;23.43;;
18316;SDS011;9284;52.298;21.164;2024-01-10T01:06:56;80.53;;;25.10;;
18316;SDS011;9284;52.298;21.164;2024-01-10T01:09:25;67.27;;;25.37;;
18316;SDS011;9284;52.298;21.164;2024-01-10T01:11:53;81.30;;;26.90;;
18316;SDS011;9284;52.298;21.164;2024-01-10T01:14:22;84.63;;;27.17;;
18316;SDS011;9284;52.298;21.164;2024-01-10T01:16:52;78.53;;;27.00;;
18316;SDS011;9284;52.298;21.164;2024-01-10T01:19:22;77.57;;;27.37;;
18316;SDS011;9284;52.298;21.164;2024-01-10T01:21:51;76.37;;;26.33;;
18316;SDS011;9284;52.298;21.164;2024-01-10T01:24:19;82.87;;;27.30;;
18316;SDS011;9284;52.298;21.164;2024-01-10T01:26:48;71.70;;;25.97;;
18316;SDS011;9284;52.298;21.164;2024-01-10T01:29:16;73.73;;;26.67;;
18316;SDS011;9284;52.298;21.164;2024-01-10T01:31:45;69.40;;;25.53;;
18316;SDS011;9284;52.298;21.164;2024-01-10T01:34:14;69.67;;;26.60;;
18316;SDS011;9284;52.298;21.164;2024-01-10T01:36:43;75.23;;;26.20;;
18316;SDS011;9284;52.298;21.164;2024-01-10T01:39:12;71.80;;;25.40;;
18316;SDS011;9284;52.298;21.164;2024-01-10T01:41:41;77.07;;;26.33;;
18316;SDS011;9284;52.298;21.164;2024-01-10T01:44:09;65.27;;;25.70;;
18316;SDS011;9284;52.298;21.164;2024-01-10T01:46:41;73.33;;;27.87;;
18316;SDS011;9284;52.298;21.164;2024-01-10T01:49:12;75.10;;;25.83;;
18316;SDS011;9284;52.298;21.164;2024-01-10T01:51:44;67.80;;;25.73;;
18316;SDS011;9284;52.298;21.164;2024-01-10T01:54:12;86.33;;;27.30;;
18316;SDS011;9284;52.298;21.164;2024-01-10T01:56:41;79.63;;;28.13;;
18316;SDS011;9284;52.298;21.164;2024-01-10T01:59:11;75.17;;;26.20;;
18316;SDS011;9284;52.298;21.164;2024-01-10T02:01:40;79.53;;;26.83;;
18316;SDS011;9284;52.298;21.164;2024-01-10T02:04:09;75.53;;;26.83;;
18316;SDS011;9284;52.298;21.164;2024-01-10T02:06:38;77.07;;;26.73;;
18316;SDS011;9284;52.298;21.164;2024-01-10T02:09:08;76.17;;;27.57;;
18316;SDS011;9284;52.298;21.164;2024-01-10T02:11:36;70.00;;;27.23;;
18316;SDS011;9284;52.298;21.164;2024-01-10T02:14:05;74.77;;;27.50;;
18316;SDS011;9284;52.298;21.164;2024-01-10T02:16:34;87.43;;;29.50;;
18316;SDS011;9284;52.298;21.164;2024-01-10T02:19:16;78.30;;;28.10;;
18316;SDS011;9284;52.298;21.164;2024-01-10T02:21:46;80.73;;;26.40;;
18316;SDS011;9284;52.298;21.164;2024-01-10T02:24:15;77.87;;;27.50;;
18316;SDS011;9284;52.298;21.164;2024-01-10T02:26:45;77.77;;;26.47;;
18316;SDS011;9284;52.298;21.164;2024-01-10T02:29:14;79.30;;;28.83;;
18316;SDS011;9284;52.298;21.164;2024-01-10T02:31:43;79.50;;;30.30;;
18316;SDS011;9284;52.298;21.164;2024-01-10T02:34:14;81.33;;;29.47;;
18316;SDS011;9284;52.298;21.164;2024-01-10T02:36:42;80.00;;;28.67;;
18316;SDS011;9284;52.298;21.164;2024-01-10T02:39:12;90.03;;;29.83;;
18316;SDS011;9284;52.298;21.164;2024-01-10T02:41:40;98.70;;;33.10;;
18316;SDS011;9284;52.298;21.164;2024-01-10T02:44:12;110.07;;;33.67;;
18316;SDS011;9284;52.298;21.164;2024-01-10T02:46:41;101.10;;;33.30;;
18316;SDS011;9284;52.298;21.164;2024-01-10T02:49:09;97.00;;;33.70;;
18316;SDS011;9284;52.298;21.164;2024-01-10T02:51:38;106.33;;;32.27;;
18316;SDS011;9284;52.298;21.164;2024-01-10T02:54:08;100.93;;;32.67;;
18316;SDS011;9284;52.298;21.164;2024-01-10T02:56:36;104.23;;;32.47;;
18316;SDS011;9284;52.298;21.164;2024-01-10T02:59:06;94.17;;;32.60;;
18316;SDS011;9284;52.298;21.164;2024-01-10T03:01:36;96.40;;;32.87;;
18316;SDS011;9284;52.298;21.164;2024-01-10T03:04:07;100.53;;;33.40;;
18316;SDS011;9284;52.298;21.164;2024-01-10T03:06:37;111.80;;;36.43;;
18316;SDS011;9284;52.298;21.164;2024-01-10T03:09:06;113.40;;;34.90;;
18316;SDS011;9284;52.298;21.164;2024-01-10T03:11:34;112.50;;;34.30;;
18316;SDS011;9284;52.298;21.164;2024-01-10T03:14:08;101.97;;;34.13;;
18316;SDS011;9284;52.298;21.164;2024-01-10T03:16:39;91.80;;;32.23;;
18316;SDS011;9284;52.298;21.164;2024-01-10T03:19:08;103.30;;;33.67;;
18316;SDS011;9284;52.298;21.164;2024-01-10T03:21:37;88.33;;;32.73;;
18316;SDS011;9284;52.298;21.164;2024-01-10T03:24:05;86.77;;;32.13;;
18316;SDS011;9284;52.298;21.164;2024-01-10T03:26:34;91.87;;;30.23;;
18316;SDS011;9284;52.298;21.164;2024-01-10T03:29:03;98.90;;;33.83;;
18316;SDS011;9284;52.298;21.164;2024-01-10T03:31:31;87.60;;;31.03;;
18316;SDS011;9284;52.298;21.164;2024-01-10T03:34:04;85.03;;;30.87;;
18316;SDS011;9284;52.298;21.164;2024-01-10T03:36:33;85.97;;;31.37;;
18316;SDS011;9284;52.298;21.164;2024-01-10T03:39:01;96.47;;;33.40;;
18316;SDS011;9284;52.298;21.164;2024-01-10T03:41:30;91.70;;;31.83;;
18316;SDS011;9284;52.298;21.164;2024-01-10T03:43:59;96.03;;;32.47;;
18316;SDS011;9284;52.298;21.164;2024-01-10T03:46:27;94.37;;;32.57;;
18316;SDS011;9284;52.298;21.164;2024-01-10T03:48:56;95.73;;;31.87;;
18316;SDS011;9284;52.298;21.164;2024-01-10T03:51:26;95.93;;;33.03;;
18316;SDS011;9284;52.298;21.164;2024-01-10T03:53:55;80.47;;;31.13;;
18316;SDS011;9284;52.298;21.164;2024-01-10T03:56:26;86.30;;;31.30;;
18316;SDS011;9284;52.298;21.164;2024-01-10T03:58:59;89.30;;;32.20;;
18316;SDS011;9284;52.298;21.164;2024-01-10T04:01:32;89.37;;;33.00;;
18316;SDS011;9284;52.298;21.164;2024-01-10T04:04:00;93.33;;;33.23;;
18316;SDS011;9284;52.298;21.164;2024-01-10T04:06:30;87.40;;;32.63;;
18316;SDS011;9284;52.298;21.164;2024-01-10T04:08:58;87.47;;;30.63;;
18316;SDS011;9284;52.298;21.164;2024-01-10T04:11:27;93.73;;;33.17;;
18316;SDS011;9284;52.298;21.164;2024-01-10T04:13:58;93.60;;;33.17;;
18316;SDS011;9284;52.298;21.164;2024-01-10T04:16:26;91.87;;;29.83;;
18316;SDS011;9284;52.298;21.164;2024-01-10T04:18:55;86.10;;;32.43;;
18316;SDS011;9284;52.298;21.164;2024-01-10T04:21:26;100.33;;;34.13;;
18316;SDS011;9284;52.298;21.164;2024-01-10T04:23:56;94.63;;;34.77;;
18316;SDS011;9284;52.298;21.164;2024-01-10T04:26:24;93.30;;;34.30;;
18316;SDS011;9284;52.298;21.164;2024-01-10T04:28:53;93.77;;;33.80;;
18316;SDS011;9284;52.298;21.164;2024-01-10T04:31:21;96.80;;;31.47;;
18316;SDS011;9284;52.298;21.164;2024-01-10T04:33:50;95.73;;;35.47;;
18316;SDS011;9284;52.298;21.164;2024-01-10T04:36:18;96.37;;;34.23;;
18316;SDS011;9284;52.298;21.164;2024-01-10T04:38:47;94.30;;;35.53;;
18316;SDS011;9284;52.298;21.164;2024-01-10T04:41:17;90.03;;;36.00;;
18316;SDS011;9284;52.298;21.164;2024-01-10T04:43:48;115.47;;;35.40;;
18316;SDS011;9284;52.298;21.164;2024-01-10T04:46:16;94.67;;;34.23;;
18316;SDS011;9284;52.298;21.164;2024-01-10T04:48:45;98.33;;;35.10;;
18316;SDS011;9284;52.298;21.164;2024-01-10T04:51:13;100.10;;;34.33;;
18316;SDS011;9284;52.298;21.164;2024-01-10T04:53:43;99.17;;;34.80;;
18316;SDS011;9284;52.298;21.164;2024-01-10T04:56:13;90.40;;;34.30;;
18316;SDS011;9284;52.298;21.164;2024-01-10T04:58:43;91.33;;;32.73;;
18316;SDS011;9284;52.298;21.164;2024-01-10T05:01:13;93.43;;;34.80;;
18316;SDS011;9284;52.298;21.164;2024-01-10T05:03:42;90.60;;;32.70;;
18316;SDS011;9284;52.298;21.164;2024-01-10T05:06:11;95.10;;;34.10;;
18316;SDS011;9284;52.298;21.164;2024-01-10T05:08:39;100.23;;;33.63;;
18316;SDS011;9284;52.298;21.164;2024-01-10T05:11:08;93.30;;;33.90;;
18316;SDS011;9284;52.298;21.164;2024-01-10T05:13:36;93.80;;;34.20;;
18316;SDS011;9284;52.298;21.164;2024-01-10T05:16:07;96.93;;;33.97;;
18316;SDS011;9284;52.298;21.164;2024-01-10T05:18:36;96.17;;;34.83;;
18316;SDS011;9284;52.298;21.164;2024-01-10T05:21:04;97.07;;;33.70;;
18316;SDS011;9284;52.298;21.164;2024-01-10T05:23:33;103.67;;;36.50;;
18316;SDS011;9284;52.298;21.164;2024-01-10T05:26:02;98.23;;;34.70;;
18316;SDS011;9284;52.298;21.164;2024-01-10T05:28:31;95.87;;;34.40;;
18316;SDS011;9284;52.298;21.164;2024-01-10T05:30:59;98.07;;;33.23;;
18316;SDS011;9284;52.298;21.164;2024-01-10T05:33:29;97.60;;;34.17;;
18316;SDS011;9284;52.298;21.164;2024-01-10T05:35:58;95.67;;;33.97;;
18316;SDS011;9284;52.298;21.164;2024-01-10T05:38:27;100.70;;;33.47;;
18316;SDS011;9284;52.298;21.164;2024-01-10T05:40:56;94.90;;;34.10;;
18316;SDS011;9284;52.298;21.164;2024-01-10T05:43:25;93.37;;;33.93;;
18316;SDS011;9284;52.298;21.164;2024-01-10T05:45:53;95.50;;;34.47;;
18316;SDS011;9284;52.298;21.164;2024-01-10T05:48:22;104.23;;;35.63;;
18316;SDS011;9284;52.298;21.164;2024-01-10T05:50:52;98.20;;;34.13;;
18316;SDS011;9284;52.298;21.164;2024-01-10T05:53:20;109.43;;;36.53;;
18316;SDS011;9284;52.298;21.164;2024-01-10T05:55:49;105.00;;;36.47;;
18316;SDS011;9284;52.298;21.164;2024-01-10T05:58:17;97.63;;;35.70;;
18316;SDS011;9284;52.298;21.164;2024-01-10T06:00:47;101.37;;;33.30;;
18316;SDS011;9284;52.298;21.164;2024-01-10T06:03:15;98.87;;;34.67;;
18316;SDS011;9284;52.298;21.164;2024-01-10T06:05:44;90.07;;;33.63;;
18316;SDS011;9284;52.298;21.164;2024-01-10T06:08:14;96.87;;;34.77;;
18316;SDS011;9284;52.298;21.164;2024-01-10T06:10:43;94.43;;;32.40;;
18316;SDS011;9284;52.298;21.164;2024-01-10T06:13:12;114.30;;;34.20;;
18316;SDS011;9284;52.298;21.164;2024-01-10T06:15:40;103.87;;;36.60;;
18316;SDS011;9284;52.298;21.164;2024-01-10T06:18:09;104.37;;;35.90;;
18316;SDS011;9284;52.298;21.164;2024-01-10T06:20:37;106.30;;;35.43;;
18316;SDS011;9284;52.298;21.164;2024-01-10T06:23:08;102.20;;;35.53;;
18316;SDS011;9284;52.298;21.164;2024-01-10T06:25:41;104.33;;;34.00;;
18316;SDS011;9284;52.298;21.164;2024-01-10T06:28:09;89.53;;;33.57;;
18316;SDS011;9284;52.298;21.164;2024-01-10T06:30:38;96.07;;;33.63;;
18316;SDS011;9284;52.298;21.164;2024-01-10T06:33:06;94.00;;;31.40;;
18316;SDS011;9284;52.298;21.164;2024-01-10T06:35:35;103.20;;;35.73;;
18316;SDS011;9284;52.298;21.164;2024-01-10T06:38:03;94.87;;;35.03;;
18316;SDS011;9284;52.298;21.164;2024-01-10T06:40:32;109.03;;;35.87;;
18316;SDS011;9284;52.298;21.164;2024-01-10T06:43:03;103.37;;;35.87;;
18316;SDS011;9284;52.298;21.164;2024-01-10T06:45:31;98.90;;;31.80;;
18316;SDS011;9284;52.298;21.164;2024-01-10T06:48:00;91.27;;;34.90;;
18316;SDS011;9284;52.298;21.164;2024-01-10T06:50:30;96.47;;;33.80;;
18316;SDS011;9284;52.298;21.164;2024-01-10T06:52:58;85.67;;;30.07;;
18316;SDS011;9284;52.298;21.164;2024-01-10T06:55:27;100.50;;;34.57;;
18316;SDS011;9284;52.298;21.164;2024-01-10T06:57:56;88.67;;;33.00;;
18316;SDS011;9284;52.298;21.164;2024-01-10T07:00:24;89.30;;;32.57;;
18316;SDS011;9284;52.298;21.164;2024-01-10T07:02:53;92.63;;;34.60;;
18316;SDS011;9284;52.298;21.164;2024-01-10T07:05:22;100.17;;;33.50;;
18316;SDS011;9284;52.298;21.164;2024-01-10T07:07:50;91.77;;;29.30;;
18316;SDS011;9284;52.298;21.164;2024-01-10T07:10:19;96.33;;;32.27;;
18316;SDS011;9284;52.298;21.164;2024-01-10T07:12:50;94.10;;;33.87;;
18316;SDS011;9284;52.298;21.164;2024-01-10T07:15:19;86.13;;;28.33;;
18316;SDS011;9284;52.298;21.164;2024-01-10T07:17:49;87.17;;;31.37;;
18316;SDS011;9284;52.298;21.164;2024-01-10T07:20:20;78.30;;;29.57;;
18316;SDS011;9284;52.298;21.164;2024-01-10T07:22:51;84.13;;;30.00;;
18316;SDS011;9284;52.298;21.164;2024-01-10T07:25:21;73.07;;;27.63;;
18316;SDS011;9284;52.298;21.164;2024-01-10T07:27:52;65.03;;;25.43;;
18316;SDS011;9284;52.298;21.164;2024-01-10T07:30:20;75.70;;;27.53;;
18316;SDS011;9284;52.298;21.164;2024-01-10T07:32:53;86.13;;;29.03;;
18316;SDS011;9284;52.298;21.164;2024-01-10T07:35:22;76.73;;;27.20;;
18316;SDS011;9284;52.298;21.164;2024-01-10T07:37:56;68.67;;;26.00;;
18316;SDS011;9284;52.298;21.164;2024-01-10T07:40:26;69.00;;;24.67;;
18316;SDS011;9284;52.298;21.164;2024-01-10T07:42:55;82.70;;;28.93;;
18316;SDS011;9284;52.298;21.164;2024-01-10T07:45:26;64.07;;;24.90;;
18316;SDS011;9284;52.298;21.164;2024-01-10T07:48:03;68.33;;;25.30;;
18316;SDS011;9284;52.298;21.164;2024-01-10T07:50:35;74.23;;;23.93;;
18316;SDS011;9284;52.298;21.164;2024-01-10T07:53:03;76.87;;;26.23;;
18316;SDS011;9284;52.298;21.164;2024-01-10T07:55:34;70.00;;;24.87;;
18316;SDS011;9284;52.298;21.164;2024-01-10T07:58:03;72.50;;;25.23;;
18316;SDS011;9284;52.298;21.164;2024-01-10T08:00:32;77.47;;;26.20;;
18316;SDS011;9284;52.298;21.164;2024-01-10T08:03:04;77.97;;;28.53;;
18316;SDS011;9284;52.298;21.164;2024-01-10T08:05:33;74.57;;;27.17;;
18316;SDS011;9284;52.298;21.164;2024-01-10T08:08:02;71.80;;;25.67;;
18316;SDS011;9284;52.298;21.164;2024-01-10T08:10:31;69.07;;;24.90;;
18316;SDS011;9284;52.298;21.164;2024-01-10T08:13:04;66.03;;;24.90;;
18316;SDS011;9284;52.298;21.164;2024-01-10T08:15:33;69.40;;;25.13;;
18316;SDS011;9284;52.298;21.164;2024-01-10T08:18:01;74.33;;;27.03;;
18316;SDS011;9284;52.298;21.164;2024-01-10T08:20:36;66.50;;;26.03;;
18316;SDS011;9284;52.298;21.164;2024-01-10T08:23:04;66.53;;;23.87;;
18316;SDS011;9284;52.298;21.164;2024-01-10T08:25:33;66.40;;;26.03;;
18316;SDS011;9284;52.298;21.164;2024-01-10T08:28:02;76.80;;;27.87;;
18316;SDS011;9284;52.298;21.164;2024-01-10T08:30:33;72.40;;;27.07;;
18316;SDS011;9284;52.298;21.164;2024-01-10T08:33:04;70.53;;;26.50;;
18316;SDS011;9284;52.298;21.164;2024-01-10T08:35:33;68.13;;;24.83;;
18316;SDS011;9284;52.298;21.164;2024-01-10T08:38:02;70.50;;;25.50;;
18316;SDS011;9284;52.298;21.164;2024-01-10T08:40:33;76.00;;;28.77;;
18316;SDS011;9284;52.298;21.164;2024-01-10T08:43:02;85.27;;;32.07;;
18316;SDS011;9284;52.298;21.164;2024-01-10T08:45:31;85.23;;;32.63;;
18316;SDS011;9284;52.298;21.164;2024-01-10T08:47:59;81.40;;;31.80;;
18316;SDS011;9284;52.298;21.164;2024-01-10T08:50:33;109.40;;;33.93;;
18316;SDS011;9284;52.298;21.164;2024-01-10T08:53:01;96.80;;;33.87;;
18316;SDS011;9284;52.298;21.164;2024-01-10T08:55:32;92.03;;;34.33;;
18316;SDS011;9284;52.298;21.164;2024-01-10T08:58:00;91.77;;;33.73;;
18316;SDS011;9284;52.298;21.164;2024-01-10T09:00:30;85.90;;;30.57;;
18316;SDS011;9284;52.298;21.164;2024-01-10T09:03:03;103.97;;;36.63;;
18316;SDS011;9284;52.298;21.164;2024-01-10T09:05:33;99.03;;;31.03;;
18316;SDS011;9284;52.298;21.164;2024-01-10T09:08:03;87.93;;;30.93;;
18316;SDS011;9284;52.298;21.164;2024-01-10T09:10:32;82.97;;;31.07;;
18316;SDS011;9284;52.298;21.164;2024-01-10T09:13:05;93.30;;;29.97;;
18316;SDS011;9284;52.298;21.164;2024-01-10T09:15:34;80.37;;;28.77;;
18316;SDS011;9284;52.298;21.164;2024-01-10T09:18:02;84.93;;;31.00;;
18316;SDS011;9284;52.298;21.164;2024-01-10T09:20:34;83.17;;;29.83;;
18316;SDS011;9284;52.298;21.164;2024-01-10T09:23:03;90.60;;;30.83;;
18316;SDS011;9284;52.298;21.164;2024-01-10T09:25:31;81.83;;;30.87;;
18316;SDS011;9284;52.298;21.164;2024-01-10T09:28:00;81.73;;;29.80;;
18316;SDS011;9284;52.298;21.164;2024-01-10T09:30:29;93.93;;;31.07;;
18316;SDS011;9284;52.298;21.164;2024-01-10T09:32:57;87.47;;;29.77;;
18316;SDS011;9284;52.298;21.164;2024-01-10T09:35:27;80.97;;;28.83;;
18316;SDS011;9284;52.298;21.164;2024-01-10T09:37:57;95.10;;;32.53;;
18316;SDS011;9284;52.298;21.164;2024-01-10T09:40:27;81.57;;;29.03;;
18316;SDS011;9284;52.298;21.164;2024-01-10T09:42:56;79.73;;;29.73;;
18316;SDS011;9284;52.298;21.164;2024-01-10T09:45:24;83.63;;;28.90;;
18316;SDS011;9284;52.298;21.164;2024-01-10T09:47:56;89.60;;;30.73;;
18316;SDS011;9284;52.298;21.164;2024-01-10T09:50:28;89.37;;;32.00;;
18316;SDS011;9284;52.298;21.164;2024-01-10T09:53:01;84.43;;;30.97;;
18316;SDS011;9284;52.298;21.164;2024-01-10T09:55:34;77.83;;;29.60;;
18316;SDS011;9284;52.298;21.164;2024-01-10T09:58:04;88.97;;;31.07;;
18316;SDS011;9284;52.298;21.164;2024-01-10T10:00:35;81.83;;;30.43;;
18316;SDS011;9284;52.298;21.164;2024-01-10T10:03:04;87.23;;;29.33;;
18316;SDS011;9284;52.298;21.164;2024-01-10T10:05:39;87.80;;;31.30;;
18316;SDS011;9284;52.298;21.164;2024-01-10T10:08:11;92.07;;;31.07;;
18316;SDS011;9284;52.298;21.164;2024-01-10T10:10:46;85.80;;;30.63;;
18316;SDS011;9284;52.298;21.164;2024-01-10T10:13:26;86.23;;;29.80;;
18316;SDS011;9284;52.298;21.164;2024-01-10T10:15:59;95.47;;;31.67;;
18316;SDS011;9284;52.298;21.164;2024-01-10T10:18:30;79.37;;;28.93;;
18316;SDS011;9284;52.298;21.164;2024-01-10T10:21:06;83.57;;;29.87;;
18316;SDS011;9284;52.298;21.164;2024-01-10T10:23:38;73.23;;;27.90;;
18316;SDS011;9284;52.298;21.164;2024-01-10T10:26:11;84.50;;;28.90;;
18316;SDS011;9284;52.298;21.164;2024-01-10T10:28:48;80.13;;;29.30;;
18316;SDS011;9284;52.298;21.164;2024-01-10T10:31:19;79.07;;;29.30;;
18316;SDS011;9284;52.298;21.164;2024-01-10T10:33:48;77.73;;;27.07;;
18316;SDS011;9284;52.298;21.164;2024-01-10T10:36:17;79.60;;;29.33;;
18316;SDS011;9284;52.298;21.164;2024-01-10T10:38:48;82.53;;;26.40;;
18316;SDS011;9284;52.298;21.164;2024-01-10T10:41:17;76.13;;;27.90;;
18316;SDS011;9284;52.298;21.164;2024-01-10T10:43:47;75.30;;;28.07;;
18316;SDS011;9284;52.298;21.164;2024-01-10T10:46:17;77.90;;;27.23;;
18316;SDS011;9284;52.298;21.164;2024-01-10T10:48:48;84.40;;;29.27;;
18316;SDS011;9284;52.298;21.164;2024-01-10T10:51:19;70.93;;;27.57;;
18316;SDS011;9284;52.298;21.164;2024-01-10T10:53:56;81.20;;;28.57;;
18316;SDS011;9284;52.298;21.164;2024-01-10T10:56:28;77.87;;;25.17;;
18316;SDS011;9284;52.298;21.164;2024-01-10T10:58:58;78.57;;;28.07;;
18316;SDS011;9284;52.298;21.164;2024-01-10T11:01:29;74.40;;;26.37;;
18316;SDS011;9284;52.298;21.164;2024-01-10T11:03:59;78.57;;;26.67;;
18316;SDS011;9284;52.298;21.164;2024-01-10T11:06:30;70.20;;;26.57;;
18316;SDS011;9284;52.298;21.164;2024-01-10T11:09:03;79.87;;;27.50;;
18316;SDS011;9284;52.298;21.164;2024-01-10T11:11:37;69.03;;;27.13;;
18316;SDS011;9284;52.298;21.164;2024-01-10T11:14:18;101.97;;;34.80;;
18316;SDS011;9284;52.298;21.164;2024-01-10T11:23:09;111.93;;;33.10;;
18316;SDS011;9284;52.298;21.164;2024-01-10T11:25:54;96.53;;;34.87;;
18316;SDS011;9284;52.298;21.164;2024-01-10T11:28:25;78.47;;;29.87;;
18316;SDS011;9284;52.298;21.164;2024-01-10T11:30:54;87.47;;;30.50;;
18316;SDS011;9284;52.298;21.164;2024-01-10T11:33:24;75.53;;;28.00;;
18316;SDS011;9284;52.298;21.164;2024-01-10T11:36:12;70.00;;;24.87;;
18316;SDS011;9284;52.298;21.164;2024-01-10T11:38:42;72.40;;;28.27;;
18316;SDS011;9284;52.298;21.164;2024-01-10T11:41:28;78.10;;;29.80;;
18316;SDS011;9284;52.298;21.164;2024-01-10T11:47:07;86.93;;;30.13;;
18316;SDS011;9284;52.298;21.164;2024-01-10T11:49:36;77.33;;;27.53;;
18316;SDS011;9284;52.298;21.164;2024-01-10T11:52:06;73.37;;;27.63;;
18316;SDS011;9284;52.298;21.164;2024-01-10T11:54:37;70.17;;;26.93;;
18316;SDS011;9284;52.298;21.164;2024-01-10T11:57:11;67.93;;;26.37;;
18316;SDS011;9284;52.298;21.164;2024-01-10T11:59:41;75.43;;;28.33;;
18316;SDS011;9284;52.298;21.164;2024-01-10T12:02:11;77.93;;;29.20;;
18316;SDS011;9284;52.298;21.164;2024-01-10T12:04:42;68.47;;;29.60;;
18316;SDS011;9284;52.298;21.164;2024-01-10T12:07:14;69.67;;;28.77;;
18316;SDS011;9284;52.298;21.164;2024-01-10T12:09:47;73.07;;;27.70;;
18316;SDS011;9284;52.298;21.164;2024-01-10T12:12:19;71.60;;;26.43;;
18316;SDS011;9284;52.298;21.164;2024-01-10T12:14:48;69.03;;;27.83;;
18316;SDS011;9284;52.298;21.164;2024-01-10T12:17:23;72.37;;;26.43;;
18316;SDS011;9284;52.298;21.164;2024-01-10T12:19:55;73.57;;;28.37;;
18316;SDS011;9284;52.298;21.164;2024-01-10T12:22:23;81.83;;;27.63;;
18316;SDS011;9284;52.298;21.164;2024-01-10T12:24:56;82.77;;;27.33;;
18316;SDS011;9284;52.298;21.164;2024-01-10T12:27:36;66.63;;;26.17;;
18316;SDS011;9284;52.298;21.164;2024-01-10T12:30:05;75.17;;;27.07;;
18316;SDS011;9284;52.298;21.164;2024-01-10T12:32:34;74.43;;;28.23;;
18316;SDS011;9284;52.298;21.164;2024-01-10T12:35:03;64.73;;;25.47;;
18316;SDS011;9284;52.298;21.164;2024-01-10T12:37:34;67.40;;;26.60;;
18316;SDS011;9284;52.298;21.164;2024-01-10T12:40:03;74.40;;;26.67;;
18316;SDS011;9284;52.298;21.164;2024-01-10T12:42:38;66.23;;;26.73;;
18316;SDS011;9284;52.298;21.164;2024-01-10T12:45:19;68.07;;;25.93;;
18316;SDS011;9284;52.298;21.164;2024-01-10T12:47:49;63.17;;;24.80;;
18316;SDS011;9284;52.298;21.164;2024-01-10T12:50:20;75.83;;;25.53;;
18316;SDS011;9284;52.298;21.164;2024-01-10T12:52:48;72.93;;;27.57;;
18316;SDS011;9284;52.298;21.164;2024-01-10T12:55:17;60.43;;;24.83;;
18316;SDS011;9284;52.298;21.164;2024-01-10T12:57:47;63.60;;;24.00;;
18316;SDS011;9284;52.298;21.164;2024-01-10T13:00:16;66.17;;;24.60;;
18316;SDS011;9284;52.298;21.164;2024-01-10T13:02:46;68.87;;;25.53;;
18316;SDS011;9284;52.298;21.164;2024-01-10T13:05:14;68.03;;;28.43;;
18316;SDS011;9284;52.298;21.164;2024-01-10T13:07:44;64.63;;;25.07;;
18316;SDS011;9284;52.298;21.164;2024-01-10T13:10:16;63.87;;;23.20;;
18316;SDS011;9284;52.298;21.164;2024-01-10T13:12:48;67.97;;;25.77;;
18316;SDS011;9284;52.298;21.164;2024-01-10T13:15:17;64.40;;;25.10;;
18316;SDS011;9284;52.298;21.164;2024-01-10T13:17:47;69.03;;;25.00;;
18316;SDS011;9284;52.298;21.164;2024-01-10T13:20:18;70.17;;;26.20;;
18316;SDS011;9284;52.298;21.164;2024-01-10T13:22:47;69.40;;;27.47;;
18316;SDS011;9284;52.298;21.164;2024-01-10T13:25:17;69.73;;;27.93;;
18316;SDS011;9284;52.298;21.164;2024-01-10T13:27:51;66.77;;;25.03;;
18316;SDS011;9284;52.298;21.164;2024-01-10T13:30:20;67.27;;;25.53;;
18316;SDS011;9284;52.298;21.164;2024-01-10T13:32:48;70.47;;;23.97;;
18316;SDS011;9284;52.298;21.164;2024-01-10T13:35:17;62.93;;;24.40;;
18316;SDS011;9284;52.298;21.164;2024-01-10T13:37:47;82.37;;;30.67;;
18316;SDS011;9284;52.298;21.164;2024-01-10T13:40:17;77.73;;;27.40;;
18316;SDS011;9284;52.298;21.164;2024-01-10T13:42:52;72.30;;;23.93;;
18316;SDS011;9284;52.298;21.164;2024-01-10T13:45:24;67.13;;;26.60;;
18316;SDS011;9284;52.298;21.164;2024-01-10T13:47:53;80.30;;;25.30;;
18316;SDS011;9284;52.298;21.164;2024-01-10T13:50:23;62.23;;;25.47;;
18316;SDS011;9284;52.298;21.164;2024-01-10T13:52:52;69.23;;;26.70;;
18316;SDS011;9284;52.298;21.164;2024-01-10T13:55:22;66.20;;;26.00;;
18316;SDS011;9284;52.298;21.164;2024-01-10T13:58:03;71.20;;;28.30;;
18316;SDS011;9284;52.298;21.164;2024-01-10T14:00:36;59.33;;;24.80;;
18316;SDS011;9284;52.298;21.164;2024-01-10T14:03:10;78.07;;;26.83;;
18316;SDS011;9284;52.298;21.164;2024-01-10T14:05:41;75.13;;;27.60;;
18316;SDS011;9284;52.298;21.164;2024-01-10T14:08:12;69.00;;;26.23;;
18316;SDS011;9284;52.298;21.164;2024-01-10T14:10:41;70.40;;;26.17;;
18316;SDS011;9284;52.298;21.164;2024-01-10T14:13:12;65.37;;;24.80;;
18316;SDS011;9284;52.298;21.164;2024-01-10T14:15:41;67.30;;;25.03;;
18316;SDS011;9284;52.298;21.164;2024-01-10T14:18:12;61.43;;;23.27;;
18316;SDS011;9284;52.298;21.164;2024-01-10T14:20:42;91.87;;;29.13;;
18316;SDS011;9284;52.298;21.164;2024-01-10T14:23:11;77.03;;;25.27;;
18316;SDS011;9284;52.298;21.164;2024-01-10T14:25:39;79.83;;;26.57;;
18316;SDS011;9284;52.298;21.164;2024-01-10T14:28:08;84.67;;;30.83;;
18316;SDS011;9284;52.298;21.164;2024-01-10T14:30:38;69.80;;;26.90;;
18316;SDS011;9284;52.298;21.164;2024-01-10T14:33:10;72.60;;;26.13;;
18316;SDS011;9284;52.298;21.164;2024-01-10T14:35:40;52.13;;;21.47;;
18316;SDS011;9284;52.298;21.164;2024-01-10T14:38:09;63.47;;;24.10;;
18316;SDS011;9284;52.298;21.164;2024-01-10T14:40:38;66.83;;;25.37;;
18316;SDS011;9284;52.298;21.164;2024-01-10T14:43:07;80.83;;;26.60;;
18316;SDS011;9284;52.298;21.164;2024-01-10T14:45:35;76.53;;;27.40;;
18316;SDS011;9284;52.298;21.164;2024-01-10T14:48:08;85.53;;;28.73;;